createdAt,value
2017-12-27T00:01:01.551Z,68
2017-12-27T00:02:03.954Z,67.9
2017-12-27T00:03:06.359Z,68
2017-12-27T00:04:08.769Z,68
2017-12-27T00:05:11.194Z,68.1
2017-12-27T00:06:13.583Z,68.1
2017-12-27T00:07:15.999Z,68.1
2017-12-27T00:08:18.402Z,68
2017-12-27T00:09:20.806Z,68.1
2017-12-27T00:10:23.221Z,68
2017-12-27T00:11:25.632Z,68
2017-12-27T00:12:28.317Z,68.1
2017-12-27T00:13:30.733Z,68
2017-12-27T00:14:33.132Z,68.1
2017-12-27T00:15:35.542Z,68.2
2017-12-27T00:16:38.233Z,68.2
2017-12-27T00:17:40.647Z,68.2
2017-12-27T00:18:43.063Z,68.2
2017-12-27T00:19:45.475Z,68.2
2017-12-27T00:20:47.884Z,68.2
2017-12-27T00:21:50.307Z,68.2
2017-12-27T00:22:53.005Z,68.2
2017-12-27T00:23:55.402Z,68.2
2017-12-27T00:24:57.803Z,68.2
2017-12-27T00:26:00.210Z,68.2
2017-12-27T00:27:02.621Z,68.2
2017-12-27T00:28:05.042Z,68.1
2017-12-27T00:29:07.426Z,68
2017-12-27T00:30:09.838Z,68.1
2017-12-27T00:31:12.252Z,68.1
2017-12-27T00:32:14.654Z,68.1
2017-12-27T00:33:17.064Z,68.1
2017-12-27T00:34:19.475Z,68.1
2017-12-27T00:35:21.876Z,68.1
2017-12-27T00:36:24.293Z,68
2017-12-27T00:37:26.705Z,68.2
2017-12-27T00:38:29.102Z,68.2
2017-12-27T00:39:31.517Z,68.3
2017-12-27T00:40:33.934Z,68.4
2017-12-27T00:41:36.339Z,68.4
2017-12-27T00:42:38.743Z,68.3
2017-12-27T00:43:41.154Z,68.2
2017-12-27T00:44:43.847Z,68.2
2017-12-27T00:45:46.534Z,68.2
2017-12-27T00:46:48.952Z,68.2
2017-12-27T00:47:51.356Z,68
2017-12-27T00:48:53.772Z,68.1
2017-12-27T00:49:56.177Z,68.2
2017-12-27T00:50:58.587Z,68.2
2017-12-27T00:52:00.996Z,68.2
2017-12-27T00:53:03.412Z,68.2
2017-12-27T00:54:05.817Z,68.4
2017-12-27T00:55:08.785Z,68.5
2017-12-27T00:56:11.470Z,68.5
2017-12-27T00:57:13.888Z,68.6
2017-12-27T00:58:16.297Z,68.5
2017-12-27T00:59:18.704Z,68.6
2017-12-27T01:00:21.381Z,68.7
2017-12-27T01:01:24.078Z,68.7
2017-12-27T01:02:26.518Z,68.7
2017-12-27T01:03:28.892Z,68.8
2017-12-27T01:04:31.299Z,68.8
2017-12-27T01:05:33.711Z,68.8
2017-12-27T01:06:36.120Z,68.8
2017-12-27T01:07:38.529Z,68.8
2017-12-27T01:08:41.240Z,68.9
2017-12-27T01:09:43.938Z,68.9
2017-12-27T01:10:46.340Z,68.9
2017-12-27T01:11:48.758Z,68.9
2017-12-27T01:12:51.173Z,69
2017-12-27T01:13:53.854Z,68.8
2017-12-27T01:14:56.267Z,68.8
2017-12-27T01:15:58.683Z,68.9
2017-12-27T01:17:01.124Z,68.8
2017-12-27T01:18:03.499Z,68.9
2017-12-27T01:19:06.192Z,69.1
2017-12-27T01:20:08.586Z,69.1
2017-12-27T01:21:11.007Z,69
2017-12-27T01:22:13.406Z,69
2017-12-27T01:23:15.813Z,68.9
2017-12-27T01:24:18.226Z,68.9
2017-12-27T01:25:20.633Z,69
2017-12-27T01:26:23.041Z,68.8
2017-12-27T01:27:25.467Z,68.9
2017-12-27T01:28:27.865Z,68.8
2017-12-27T01:29:30.557Z,68.9
2017-12-27T01:30:32.963Z,68.9
2017-12-27T01:31:35.371Z,68.8
2017-12-27T01:32:37.783Z,68.9
2017-12-27T01:33:40.197Z,68.8
2017-12-27T01:34:42.598Z,68.8
2017-12-27T01:35:45.017Z,68.8
2017-12-27T01:36:47.415Z,68.8
2017-12-27T01:37:49.829Z,68.9
2017-12-27T01:38:52.234Z,68.9
2017-12-27T01:39:54.644Z,68.9
2017-12-27T01:40:57.047Z,68.9
2017-12-27T01:41:59.454Z,68.9
2017-12-27T01:43:01.864Z,68.9
2017-12-27T01:44:04.621Z,69
2017-12-27T01:45:07.023Z,69
2017-12-27T01:46:09.425Z,68.9
2017-12-27T01:47:11.838Z,68.9
2017-12-27T01:48:14.240Z,68.8
2017-12-27T01:49:16.642Z,68.9
2017-12-27T01:50:19.050Z,68.9
2017-12-27T01:51:21.456Z,68.9
2017-12-27T01:52:24.155Z,69
2017-12-27T01:53:26.567Z,69
2017-12-27T01:54:28.960Z,69
2017-12-27T01:55:31.370Z,68.9
2017-12-27T01:56:34.088Z,68.8
2017-12-27T01:57:36.497Z,68.9
2017-12-27T01:58:38.911Z,68.8
2017-12-27T01:59:41.589Z,68.9
2017-12-27T02:00:44.278Z,68.9
2017-12-27T02:01:46.698Z,68.9
2017-12-27T02:02:49.106Z,68.9
2017-12-27T02:03:51.799Z,69
2017-12-27T02:04:54.200Z,68.9
2017-12-27T02:05:56.602Z,69
2017-12-27T02:06:59.017Z,68.9
2017-12-27T02:08:01.427Z,69
2017-12-27T02:09:03.877Z,69
2017-12-27T02:10:06.284Z,69
2017-12-27T02:11:08.689Z,69.1
2017-12-27T02:12:11.095Z,69.1
2017-12-27T02:13:13.507Z,69.1
2017-12-27T02:14:15.916Z,68.9
2017-12-27T02:15:18.325Z,69
2017-12-27T02:16:20.734Z,69
2017-12-27T02:17:23.141Z,69
2017-12-27T02:18:25.531Z,69.1
2017-12-27T02:19:27.951Z,69.1
2017-12-27T02:20:30.345Z,69.2
2017-12-27T02:21:32.760Z,69
2017-12-27T02:22:35.174Z,69
2017-12-27T02:23:37.858Z,69.1
2017-12-27T02:24:40.266Z,69.2
2017-12-27T02:25:42.682Z,69.2
2017-12-27T02:26:45.370Z,69.3
2017-12-27T02:27:47.779Z,69.3
2017-12-27T02:28:50.194Z,69.3
2017-12-27T02:29:52.600Z,69.2
2017-12-27T02:30:55.014Z,69.3
2017-12-27T02:31:57.708Z,69.3
2017-12-27T02:33:00.695Z,69.2
2017-12-27T02:34:03.115Z,69.2
2017-12-27T02:35:05.508Z,69.3
2017-12-27T02:36:07.917Z,69.3
2017-12-27T02:37:10.321Z,69.2
2017-12-27T02:38:12.735Z,69.2
2017-12-27T02:39:15.425Z,69.2
2017-12-27T02:40:17.844Z,69.3
2017-12-27T02:41:20.252Z,69.4
2017-12-27T02:42:22.654Z,69.4
2017-12-27T02:43:25.058Z,69.3
2017-12-27T02:44:27.482Z,69.2
2017-12-27T02:45:29.892Z,69.2
2017-12-27T02:46:32.295Z,69.1
2017-12-27T02:47:34.703Z,69.2
2017-12-27T02:48:37.113Z,69.2
2017-12-27T02:49:39.526Z,69.4
2017-12-27T02:50:42.226Z,69.4
2017-12-27T02:51:44.909Z,69.4
2017-12-27T02:52:47.311Z,69.4
2017-12-27T02:53:49.726Z,69.4
2017-12-27T02:54:52.124Z,69.5
2017-12-27T02:55:54.819Z,69.4
2017-12-27T02:56:57.218Z,69.5
2017-12-27T02:57:59.633Z,69.5
2017-12-27T02:59:02.334Z,69.5
2017-12-27T03:00:04.741Z,69.5
2017-12-27T03:01:07.155Z,69.5
2017-12-27T03:02:09.558Z,69.6
2017-12-27T03:03:11.967Z,69.6
2017-12-27T03:04:14.374Z,69.7
2017-12-27T03:05:16.782Z,69.5
2017-12-27T03:06:19.177Z,69.5
2017-12-27T03:07:21.582Z,69.5
2017-12-27T03:08:24.278Z,69.5
2017-12-27T03:09:26.688Z,69.5
2017-12-27T03:10:29.101Z,69.7
2017-12-27T03:11:31.504Z,69.7
2017-12-27T03:12:33.908Z,69.6
2017-12-27T03:13:36.309Z,69.7
2017-12-27T03:14:38.715Z,69.5
2017-12-27T03:15:41.134Z,69.7
2017-12-27T03:16:43.544Z,69.6
2017-12-27T03:17:45.933Z,69.7
2017-12-27T03:18:48.351Z,69.7
2017-12-27T03:19:51.044Z,69.7
2017-12-27T03:20:53.450Z,69.7
2017-12-27T03:21:55.852Z,69.7
2017-12-27T03:22:58.253Z,69.7
2017-12-27T03:24:00.654Z,69.8
2017-12-27T03:25:03.068Z,69.8
2017-12-27T03:26:05.473Z,69.8
2017-12-27T03:27:07.883Z,69.8
2017-12-27T03:28:10.575Z,69.7
2017-12-27T03:29:12.983Z,69.7
2017-12-27T03:30:15.392Z,69.8
2017-12-27T03:31:17.797Z,69.9
2017-12-27T03:32:20.194Z,70
2017-12-27T03:33:22.612Z,70
2017-12-27T03:34:25.015Z,70
2017-12-27T03:35:27.710Z,70
2017-12-27T03:36:30.113Z,69.9
2017-12-27T03:37:32.799Z,69.9
2017-12-27T03:38:35.203Z,70
2017-12-27T03:39:37.622Z,70
2017-12-27T03:40:40.308Z,69.9
2017-12-27T03:41:42.695Z,69.9
2017-12-27T03:42:45.105Z,69.8
2017-12-27T03:43:47.505Z,69.7
2017-12-27T03:44:49.921Z,69.7
2017-12-27T03:45:52.334Z,69.9
2017-12-27T03:46:54.739Z,70
2017-12-27T03:47:57.424Z,70
2017-12-27T03:48:59.843Z,70
2017-12-27T03:50:02.240Z,70
2017-12-27T03:51:04.655Z,70
2017-12-27T03:52:07.353Z,70
2017-12-27T03:53:09.760Z,70.1
2017-12-27T03:54:12.167Z,69.9
2017-12-27T03:55:14.584Z,70
2017-12-27T03:56:16.985Z,70
2017-12-27T03:57:19.393Z,70
2017-12-27T03:58:21.795Z,70
2017-12-27T03:59:24.205Z,70.1
2017-12-27T04:00:26.891Z,70.1
2017-12-27T04:01:29.304Z,70.1
2017-12-27T04:02:31.702Z,70.1
2017-12-27T04:03:34.120Z,70
2017-12-27T04:04:36.526Z,70
2017-12-27T04:05:38.933Z,70.1
2017-12-27T04:06:41.334Z,70.1
2017-12-27T04:07:44.029Z,70.1
2017-12-27T04:08:46.431Z,70
2017-12-27T04:09:49.123Z,70.1
2017-12-27T04:10:51.529Z,70.1
2017-12-27T04:11:53.937Z,70
2017-12-27T04:12:56.340Z,70.1
2017-12-27T04:13:58.746Z,70.2
2017-12-27T04:15:01.162Z,70.2
2017-12-27T04:16:03.571Z,70.2
2017-12-27T04:17:05.982Z,70.3
2017-12-27T04:18:08.389Z,70.3
2017-12-27T04:19:10.790Z,70.2
2017-12-27T04:20:13.197Z,70.2
2017-12-27T04:21:15.595Z,70.2
2017-12-27T04:22:17.992Z,70.2
2017-12-27T04:23:20.687Z,70.2
2017-12-27T04:24:23.095Z,70.1
2017-12-27T04:25:25.499Z,70.1
2017-12-27T04:26:27.907Z,70.2
2017-12-27T04:27:30.314Z,70.1
2017-12-27T04:28:32.726Z,70.1
2017-12-27T04:29:35.138Z,70.1
2017-12-27T04:30:37.549Z,70.2
2017-12-27T04:31:39.947Z,70.2
2017-12-27T04:32:42.361Z,70.1
2017-12-27T04:33:44.773Z,70.1
2017-12-27T04:34:47.177Z,70.1
2017-12-27T04:35:49.577Z,70.1
2017-12-27T04:36:51.981Z,70.3
2017-12-27T04:37:54.391Z,70.4
2017-12-27T04:38:56.805Z,70.3
2017-12-27T04:39:59.492Z,70.2
2017-12-27T04:41:01.897Z,70.3
2017-12-27T04:42:04.589Z,70.3
2017-12-27T04:43:06.995Z,70.3
2017-12-27T04:44:09.396Z,70.4
2017-12-27T04:45:11.801Z,70.3
2017-12-27T04:46:14.224Z,70.2
2017-12-27T04:47:16.618Z,70.2
2017-12-27T04:48:19.034Z,70.2
2017-12-27T04:49:21.433Z,70.3
2017-12-27T04:50:23.834Z,70.2
2017-12-27T04:51:26.521Z,70.1
2017-12-27T04:52:28.929Z,70.3
2017-12-27T04:53:31.330Z,70.4
2017-12-27T04:54:33.741Z,70.5
2017-12-27T04:55:36.138Z,70.5
2017-12-27T04:56:38.558Z,70.5
2017-12-27T04:57:40.958Z,70.6
2017-12-27T04:58:43.368Z,70.5
2017-12-27T04:59:46.080Z,70.5
2017-12-27T05:00:48.485Z,70.5
2017-12-27T05:01:50.886Z,70.5
2017-12-27T05:02:53.298Z,70.5
2017-12-27T05:03:55.696Z,70.5
2017-12-27T05:04:58.099Z,70.5
2017-12-27T05:06:00.501Z,70.4
2017-12-27T05:07:02.918Z,70.5
2017-12-27T05:08:05.318Z,70.4
2017-12-27T05:09:07.725Z,70.4
2017-12-27T05:10:10.142Z,70.5
2017-12-27T05:11:12.554Z,70.5
2017-12-27T05:12:14.945Z,70.4
2017-12-27T05:13:17.353Z,70.4
2017-12-27T05:14:19.767Z,70.4
2017-12-27T05:15:22.169Z,70.3
2017-12-27T05:16:24.873Z,70.4
2017-12-27T05:17:27.270Z,70.4
2017-12-27T05:18:29.955Z,70.1
2017-12-27T05:19:32.363Z,70.3
2017-12-27T05:20:34.771Z,70.4
2017-12-27T05:21:37.185Z,70.5
2017-12-27T05:22:39.590Z,70.6
2017-12-27T05:23:41.999Z,70.7
2017-12-27T05:24:44.406Z,70.7
2017-12-27T05:25:47.102Z,70.6
2017-12-27T05:26:49.501Z,70.5
2017-12-27T05:27:51.916Z,70.4
2017-12-27T05:28:54.613Z,70.5
2017-12-27T05:29:57.019Z,70.4
2017-12-27T05:30:59.415Z,70.4
2017-12-27T05:32:01.833Z,70.6
2017-12-27T05:33:04.236Z,70.5
2017-12-27T05:34:06.645Z,70.5
2017-12-27T05:35:09.054Z,70.5
2017-12-27T05:36:11.458Z,70.5
2017-12-27T05:37:13.863Z,70.6
2017-12-27T05:38:16.570Z,70.6
2017-12-27T05:39:18.972Z,70.5
2017-12-27T05:40:21.382Z,70.6
2017-12-27T05:41:23.791Z,70.5
2017-12-27T05:42:26.197Z,70.5
2017-12-27T05:43:28.596Z,70.5
2017-12-27T05:44:31.284Z,70.5
2017-12-27T05:45:33.691Z,70.3
2017-12-27T05:46:36.089Z,70.4
2017-12-27T05:47:38.496Z,70.3
2017-12-27T05:48:40.907Z,70.3
2017-12-27T05:49:43.308Z,70.4
2017-12-27T05:50:45.720Z,70.4
2017-12-27T05:51:48.127Z,70.4
2017-12-27T05:52:50.537Z,70.4
2017-12-27T05:53:52.947Z,70.4
2017-12-27T05:54:55.351Z,70.5
2017-12-27T05:55:57.755Z,70.4
2017-12-27T05:57:00.170Z,70.4
2017-12-27T05:58:02.574Z,70.4
2017-12-27T05:59:05.248Z,70.4
2017-12-27T06:00:07.655Z,70.2
2017-12-27T06:01:10.057Z,70.3
2017-12-27T06:02:12.751Z,70.2
2017-12-27T06:03:15.161Z,70.4
2017-12-27T06:04:17.833Z,70.3
2017-12-27T06:05:20.241Z,70.5
2017-12-27T06:06:22.660Z,70.5
2017-12-27T06:07:25.355Z,70.5
2017-12-27T06:08:27.765Z,70.5
2017-12-27T06:09:30.161Z,70.5
2017-12-27T06:10:32.559Z,70.5
2017-12-27T06:11:34.964Z,70.5
2017-12-27T06:12:37.371Z,70.5
2017-12-27T06:13:39.777Z,70.5
2017-12-27T06:14:43.036Z,70.6
2017-12-27T06:15:45.481Z,70.6
2017-12-27T06:16:48.139Z,70.6
2017-12-27T06:17:50.557Z,70.7
2017-12-27T06:18:52.961Z,70.6
2017-12-27T06:19:55.362Z,70.5
2017-12-27T06:20:57.775Z,70.6
2017-12-27T06:22:00.176Z,70.5
2017-12-27T06:23:02.590Z,70.5
2017-12-27T06:24:04.992Z,70.6
2017-12-27T06:25:07.397Z,70.6
2017-12-27T06:26:09.805Z,70.6
2017-12-27T06:27:12.215Z,70.7
2017-12-27T06:28:14.600Z,70.6
2017-12-27T06:29:17.049Z,70.7
2017-12-27T06:30:19.422Z,70.6
2017-12-27T06:31:21.832Z,70.6
2017-12-27T06:32:24.246Z,70.5
2017-12-27T06:33:26.654Z,70.6
2017-12-27T06:34:29.061Z,70.6
2017-12-27T06:35:31.480Z,70.7
2017-12-27T06:36:33.883Z,70.7
2017-12-27T06:37:36.282Z,70.8
2017-12-27T06:38:38.689Z,70.9
2017-12-27T06:39:41.096Z,70.8
2017-12-27T06:40:43.497Z,70.9
2017-12-27T06:41:45.900Z,70.8
2017-12-27T06:42:48.314Z,70.8
2017-12-27T06:43:51.028Z,70.8
2017-12-27T06:44:53.397Z,70.5
2017-12-27T06:45:56.369Z,70.5
2017-12-27T06:46:58.816Z,70.6
2017-12-27T06:48:01.182Z,70.5
2017-12-27T06:49:03.592Z,70.7
2017-12-27T06:50:05.983Z,70.7
2017-12-27T06:51:08.381Z,70.7
2017-12-27T06:52:10.806Z,70.7
2017-12-27T06:53:13.201Z,70.7
2017-12-27T06:54:15.612Z,70.7
2017-12-27T06:55:18.023Z,70.8
2017-12-27T06:56:20.715Z,70.8
2017-12-27T06:57:23.122Z,70.8
2017-12-27T06:58:25.525Z,70.8
2017-12-27T06:59:27.927Z,70.7
2017-12-27T07:00:30.340Z,70.7
2017-12-27T07:01:33.034Z,70.8
2017-12-27T07:02:35.428Z,70.8
2017-12-27T07:03:37.843Z,70.8
2017-12-27T07:04:40.245Z,70.8
2017-12-27T07:05:42.925Z,70.8
2017-12-27T07:06:45.337Z,70.7
2017-12-27T07:07:47.744Z,70.7
2017-12-27T07:08:50.139Z,70.8
2017-12-27T07:09:52.550Z,70.6
2017-12-27T07:10:54.955Z,70.8
2017-12-27T07:11:57.361Z,70.8
2017-12-27T07:12:59.763Z,70.9
2017-12-27T07:14:02.169Z,70.8
2017-12-27T07:15:04.572Z,70.8
2017-12-27T07:16:07.280Z,70.9
2017-12-27T07:17:09.686Z,70.9
2017-12-27T07:18:12.363Z,70.8
2017-12-27T07:19:14.774Z,70.9
2017-12-27T07:20:17.177Z,70.8
2017-12-27T07:21:19.593Z,70.8
2017-12-27T07:22:22.007Z,70.9
2017-12-27T07:23:24.694Z,70.9
2017-12-27T07:24:27.386Z,70.9
2017-12-27T07:25:30.083Z,70.8
2017-12-27T07:26:32.776Z,70.8
2017-12-27T07:27:35.165Z,71
2017-12-27T07:28:37.584Z,70.9
2017-12-27T07:29:39.984Z,70.9
2017-12-27T07:30:42.390Z,70.9
2017-12-27T07:31:45.085Z,70.9
2017-12-27T07:32:47.485Z,70.9
2017-12-27T07:33:49.887Z,70.9
2017-12-27T07:34:52.304Z,71
2017-12-27T07:35:54.709Z,71
2017-12-27T07:36:57.393Z,70.9
2017-12-27T07:37:59.806Z,70.8
2017-12-27T07:39:02.519Z,70.7
2017-12-27T07:40:04.913Z,70.8
2017-12-27T07:41:07.899Z,70.8
2017-12-27T07:42:10.308Z,70.7
2017-12-27T07:43:12.722Z,70.6
2017-12-27T07:44:15.133Z,70.7
2017-12-27T07:45:17.531Z,70.5
2017-12-27T07:46:19.945Z,70.5
2017-12-27T07:47:22.357Z,70.6
2017-12-27T07:48:24.757Z,70.6
2017-12-27T07:49:27.166Z,70.6
2017-12-27T07:50:29.851Z,70.5
2017-12-27T07:51:32.271Z,70.5
2017-12-27T07:52:34.790Z,70.5
2017-12-27T07:53:37.209Z,70.5
2017-12-27T07:54:39.622Z,70.5
2017-12-27T07:55:42.046Z,70.5
2017-12-27T07:56:44.474Z,70.5
2017-12-27T07:57:47.169Z,70.5
2017-12-27T07:58:49.578Z,70.5
2017-12-27T07:59:51.995Z,70.5
2017-12-27T08:00:54.393Z,70.6
2017-12-27T08:01:56.807Z,70.5
2017-12-27T08:02:59.218Z,70.3
2017-12-27T08:04:01.628Z,70.4
2017-12-27T08:05:04.325Z,70.5
2017-12-27T08:06:06.734Z,70.5
2017-12-27T08:07:09.145Z,70.5
2017-12-27T08:08:11.575Z,70.5
2017-12-27T08:09:13.974Z,70.5
2017-12-27T08:10:16.389Z,70.6
2017-12-27T08:11:18.796Z,70.6
2017-12-27T08:12:21.200Z,70.5
2017-12-27T08:13:23.611Z,70.4
2017-12-27T08:14:26.024Z,70.4
2017-12-27T08:15:28.420Z,70.5
2017-12-27T08:16:30.842Z,70.5
2017-12-27T08:17:33.250Z,70.6
2017-12-27T08:18:35.665Z,70.6
2017-12-27T08:19:38.083Z,70.6
2017-12-27T08:20:40.493Z,70.6
2017-12-27T08:21:42.887Z,70.6
2017-12-27T08:22:45.307Z,70.6
2017-12-27T08:23:47.999Z,70.6
2017-12-27T08:24:50.412Z,70.7
2017-12-27T08:25:52.824Z,70.5
2017-12-27T08:26:55.242Z,70.7
2017-12-27T08:27:57.926Z,70.6
2017-12-27T08:29:00.339Z,70.6
2017-12-27T08:30:02.742Z,70.5
2017-12-27T08:31:05.433Z,70.6
2017-12-27T08:32:07.843Z,70.5
2017-12-27T08:33:10.256Z,70.5
2017-12-27T08:34:12.832Z,70.7
2017-12-27T08:35:15.248Z,70.5
2017-12-27T08:36:17.655Z,70.6
2017-12-27T08:37:20.085Z,70.7
2017-12-27T08:38:22.506Z,70.7
2017-12-27T08:39:24.919Z,70.6
2017-12-27T08:40:27.329Z,70.4
2017-12-27T08:41:29.715Z,70.5
2017-12-27T08:42:32.126Z,70.5
2017-12-27T08:43:34.547Z,70.5
2017-12-27T08:44:36.954Z,70.7
2017-12-27T08:45:39.370Z,70.7
2017-12-27T08:46:41.772Z,70.7
2017-12-27T08:47:44.180Z,70.7
2017-12-27T08:48:46.884Z,70.7
2017-12-27T08:49:49.290Z,70.6
2017-12-27T08:50:51.688Z,70.5
2017-12-27T08:51:54.145Z,70.5
2017-12-27T08:52:56.512Z,70.6
2017-12-27T08:53:58.915Z,70.6
2017-12-27T08:55:01.327Z,70.6
2017-12-27T08:56:03.729Z,70.7
2017-12-27T08:57:06.128Z,70.6
2017-12-27T08:58:08.542Z,70.6
2017-12-27T08:59:11.251Z,70.5
2017-12-27T09:00:13.652Z,70.4
2017-12-27T09:01:16.069Z,70.5
2017-12-27T09:02:18.478Z,70.5
2017-12-27T09:03:20.894Z,70.6
2017-12-27T09:04:23.313Z,70.6
2017-12-27T09:05:25.706Z,70.6
2017-12-27T09:06:28.109Z,70.5
2017-12-27T09:07:30.536Z,70.5
2017-12-27T09:08:33.222Z,70.5
2017-12-27T09:09:35.626Z,70.5
2017-12-27T09:10:38.035Z,70.5
2017-12-27T09:11:40.734Z,70.5
2017-12-27T09:12:43.144Z,70.5
2017-12-27T09:13:45.563Z,70.5
2017-12-27T09:14:48.981Z,70.7
2017-12-27T09:15:51.994Z,70.7
2017-12-27T09:16:54.408Z,70.8
2017-12-27T09:17:57.129Z,70.7
2017-12-27T09:18:59.579Z,70.6
2017-12-27T09:20:01.955Z,70.7
2017-12-27T09:21:04.362Z,70.7
2017-12-27T09:22:06.779Z,70.7
2017-12-27T09:23:09.188Z,70.5
2017-12-27T09:24:11.601Z,70.5
2017-12-27T09:25:14.003Z,70.5
2017-12-27T09:26:16.695Z,70.4
2017-12-27T09:27:19.106Z,70.5
2017-12-27T09:28:21.523Z,70.5
2017-12-27T09:29:24.223Z,70.6
2017-12-27T09:30:26.632Z,70.6
2017-12-27T09:31:29.053Z,70.6
2017-12-27T09:32:31.772Z,70.5
2017-12-27T09:33:34.196Z,70.4
2017-12-27T09:34:36.597Z,70.3
2017-12-27T09:35:39.001Z,70.2
2017-12-27T09:36:41.693Z,70.4
2017-12-27T09:37:44.099Z,70.1
2017-12-27T09:38:46.513Z,70.1
2017-12-27T09:39:48.944Z,70.1
2017-12-27T09:40:51.348Z,70.2
2017-12-27T09:41:53.749Z,70.2
2017-12-27T09:42:56.166Z,70.1
2017-12-27T09:43:58.857Z,70.1
2017-12-27T09:45:01.265Z,70.1
2017-12-27T09:46:03.951Z,70
2017-12-27T09:47:06.368Z,70
2017-12-27T09:48:08.776Z,70.1
2017-12-27T09:49:11.197Z,70
2017-12-27T09:50:13.591Z,70.3
2017-12-27T09:51:16.007Z,70.3
2017-12-27T09:52:18.415Z,70.3
2017-12-27T09:53:21.026Z,70.2
2017-12-27T09:54:24.281Z,70.2
2017-12-27T09:55:26.720Z,70.1
2017-12-27T09:56:29.174Z,70.2
2017-12-27T09:57:31.575Z,70.1
2017-12-27T09:58:34.278Z,69.9
2017-12-27T09:59:36.711Z,70
2017-12-27T10:00:39.439Z,69.9
2017-12-27T10:01:42.415Z,69.8
2017-12-27T10:02:44.824Z,69.8
2017-12-27T10:03:47.240Z,69.7
2017-12-27T10:04:49.931Z,69.6
2017-12-27T10:05:52.341Z,69.5
2017-12-27T10:06:54.887Z,69.5
2017-12-27T10:07:57.303Z,69.5
2017-12-27T10:08:59.996Z,69.3
2017-12-27T10:10:02.401Z,69.3
2017-12-27T10:11:04.813Z,69.3
2017-12-27T10:12:07.233Z,69.4
2017-12-27T10:13:09.634Z,69.4
2017-12-27T10:14:12.051Z,69.4
2017-12-27T10:15:14.484Z,69.4
2017-12-27T10:16:16.879Z,69.4
2017-12-27T10:17:19.284Z,69.4
2017-12-27T10:18:21.697Z,69.3
2017-12-27T10:19:24.106Z,69.3
2017-12-27T10:20:26.525Z,69.4
2017-12-27T10:21:28.924Z,69.5
2017-12-27T10:22:31.336Z,69.5
2017-12-27T10:23:33.742Z,69.5
2017-12-27T10:24:36.476Z,69.5
2017-12-27T10:25:38.860Z,69.4
2017-12-27T10:26:41.283Z,69.4
2017-12-27T10:27:43.694Z,69.4
2017-12-27T10:28:46.104Z,69.4
2017-12-27T10:29:48.523Z,69.5
2017-12-27T10:30:50.934Z,69.4
2017-12-27T10:31:53.344Z,69.2
2017-12-27T10:32:56.040Z,69.2
2017-12-27T10:33:58.447Z,69.1
2017-12-27T10:35:00.858Z,69.2
2017-12-27T10:36:03.375Z,69.2
2017-12-27T10:37:06.215Z,69.2
2017-12-27T10:38:09.390Z,69
2017-12-27T10:39:12.056Z,69
2017-12-27T10:40:14.747Z,69.2
2017-12-27T10:41:17.422Z,69.2
2017-12-27T10:42:20.087Z,69.2
2017-12-27T10:43:22.791Z,69
2017-12-27T10:44:25.544Z,69.3
2017-12-27T10:45:28.495Z,69.3
2017-12-27T10:46:31.225Z,69.2
2017-12-27T10:47:34.321Z,68.9
2017-12-27T10:48:37.416Z,68.9
2017-12-27T10:49:40.243Z,68.9
2017-12-27T10:50:43.037Z,69
2017-12-27T10:51:45.846Z,69
2017-12-27T10:52:48.977Z,69.1
2017-12-27T10:53:51.777Z,68.8
2017-12-27T10:54:54.955Z,68.9
2017-12-27T10:55:57.857Z,68.8
2017-12-27T10:57:00.676Z,68.8
2017-12-27T10:58:03.541Z,68.7
2017-12-27T10:59:06.394Z,68.6
2017-12-27T11:00:09.116Z,68.5
2017-12-27T11:01:12.006Z,68.6
2017-12-27T11:02:14.924Z,68.6
2017-12-27T11:03:17.735Z,68.6
2017-12-27T11:04:20.578Z,68.6
2017-12-27T11:05:23.300Z,68.7
2017-12-27T11:06:26.059Z,68.6
2017-12-27T11:07:28.792Z,68.7
2017-12-27T11:08:31.964Z,68.8
2017-12-27T11:09:35.115Z,68.8
2017-12-27T11:10:37.916Z,68.8
2017-12-27T11:11:40.856Z,68.8
2017-12-27T11:12:43.508Z,68.9
2017-12-27T11:13:46.334Z,68.8
2017-12-27T11:14:49.170Z,68.9
2017-12-27T11:15:51.885Z,68.8
2017-12-27T11:16:54.297Z,68.7
2017-12-27T11:17:56.713Z,68.5
2017-12-27T11:18:59.267Z,68.4
2017-12-27T11:20:02.333Z,68.2
2017-12-27T11:21:04.736Z,68.3
2017-12-27T11:22:07.148Z,68.4
2017-12-27T11:23:09.559Z,68.5
2017-12-27T11:24:11.972Z,68.4
2017-12-27T11:25:14.380Z,68.3
2017-12-27T11:26:16.837Z,68.4
2017-12-27T11:27:19.268Z,68.5
2017-12-27T11:28:21.977Z,68.5
2017-12-27T11:29:24.382Z,68.5
2017-12-27T11:30:27.071Z,68.4
2017-12-27T11:31:29.485Z,68.3
2017-12-27T11:32:31.905Z,68.4
2017-12-27T11:33:34.312Z,68.4
2017-12-27T11:34:36.732Z,68.6
2017-12-27T11:35:39.458Z,68.6
2017-12-27T11:36:41.863Z,68.6
2017-12-27T11:37:44.552Z,68.5
2017-12-27T11:38:46.965Z,68.5
2017-12-27T11:39:49.378Z,68.5
2017-12-27T11:40:51.789Z,68.5
2017-12-27T11:41:54.200Z,68.5
2017-12-27T11:42:56.609Z,68.4
2017-12-27T11:43:59.022Z,68.3
2017-12-27T11:45:01.735Z,68.4
2017-12-27T11:46:04.149Z,68.3
2017-12-27T11:47:06.603Z,68.4
2017-12-27T11:48:09.607Z,68.3
2017-12-27T11:49:12.138Z,68.3
2017-12-27T11:50:14.724Z,68.2
2017-12-27T11:51:17.142Z,68.3
2017-12-27T11:52:19.552Z,68.4
2017-12-27T11:53:21.963Z,68.5
2017-12-27T11:54:24.377Z,68.6
2017-12-27T11:55:27.065Z,68.8
2017-12-27T11:56:29.478Z,68.7
2017-12-27T11:57:31.932Z,68.7
2017-12-27T11:58:34.453Z,68.6
2017-12-27T11:59:37.156Z,68.6
2017-12-27T12:00:39.592Z,68.5
2017-12-27T12:01:41.989Z,68.6
2017-12-27T12:02:44.416Z,68.7
2017-12-27T12:03:46.832Z,68.6
2017-12-27T12:04:49.286Z,68.6
2017-12-27T12:05:51.801Z,68.5
2017-12-27T12:06:54.219Z,68.5
2017-12-27T12:07:56.618Z,68.6
2017-12-27T12:08:59.045Z,68.5
2017-12-27T12:10:01.464Z,68.5
2017-12-27T12:11:03.877Z,68.6
2017-12-27T12:12:06.577Z,68.6
2017-12-27T12:13:08.984Z,68.6
2017-12-27T12:14:11.487Z,68.6
2017-12-27T12:15:14.039Z,68.5
2017-12-27T12:16:16.611Z,68.5
2017-12-27T12:17:19.018Z,68.6
2017-12-27T12:18:21.417Z,68.6
2017-12-27T12:19:23.839Z,68.7
2017-12-27T12:20:26.521Z,68.7
2017-12-27T12:21:28.930Z,68.6
2017-12-27T12:22:31.621Z,68.6
2017-12-27T12:23:34.038Z,68.8
2017-12-27T12:24:36.728Z,68.7
2017-12-27T12:25:39.433Z,68.7
2017-12-27T12:26:41.840Z,68.7
2017-12-27T12:27:44.550Z,68.7
2017-12-27T12:28:46.961Z,67.8
2017-12-27T12:29:49.375Z,67.8
2017-12-27T12:30:51.786Z,67.8
2017-12-27T12:31:54.470Z,67.6
2017-12-27T12:32:56.873Z,67.6
2017-12-27T12:33:59.693Z,67.7
2017-12-27T12:35:02.651Z,67.7
2017-12-27T12:36:05.055Z,68.7
2017-12-27T12:37:07.463Z,68.7
2017-12-27T12:38:09.878Z,68.7
2017-12-27T12:39:12.571Z,68.7
2017-12-27T12:40:14.982Z,68.7
2017-12-27T12:41:17.403Z,68.8
2017-12-27T12:42:19.806Z,68.8
2017-12-27T12:43:22.215Z,68.8
2017-12-27T12:44:24.634Z,68.9
2017-12-27T12:45:27.039Z,69
2017-12-27T12:46:29.458Z,69.1
2017-12-27T12:47:31.875Z,68.2
2017-12-27T12:48:34.285Z,68.1
2017-12-27T12:49:36.699Z,67.9
2017-12-27T12:50:39.396Z,67.8
2017-12-27T12:51:41.792Z,67.9
2017-12-27T12:52:44.203Z,67.9
2017-12-27T12:53:46.622Z,68
2017-12-27T12:54:49.038Z,67.9
2017-12-27T12:55:51.455Z,67.8
2017-12-27T12:56:53.859Z,67.9
2017-12-27T12:57:56.273Z,67.8
2017-12-27T12:58:58.993Z,67.8
2017-12-27T13:00:01.386Z,67.8
2017-12-27T13:01:03.801Z,67.7
2017-12-27T13:02:06.492Z,67.7
2017-12-27T13:03:08.906Z,67.7
2017-12-27T13:04:11.597Z,67.6
2017-12-27T13:05:14.010Z,67.7
2017-12-27T13:06:16.434Z,67.7
2017-12-27T13:07:18.857Z,67.6
2017-12-27T13:08:21.543Z,67.6
2017-12-27T13:09:24.265Z,67.6
2017-12-27T13:10:26.982Z,67.6
2017-12-27T13:11:29.388Z,67.6
2017-12-27T13:12:31.801Z,67.5
2017-12-27T13:13:34.202Z,67.4
2017-12-27T13:14:36.603Z,67.6
2017-12-27T13:15:39.035Z,67.5
2017-12-27T13:16:41.448Z,67.5
2017-12-27T13:17:43.855Z,67.5
2017-12-27T13:18:46.540Z,67.4
2017-12-27T13:19:48.956Z,67.4
2017-12-27T13:20:51.647Z,67.5
2017-12-27T13:21:54.146Z,67.5
2017-12-27T13:22:56.769Z,67.4
2017-12-27T13:23:59.230Z,67.4
2017-12-27T13:25:01.784Z,67.2
2017-12-27T13:26:04.535Z,67.2
2017-12-27T13:27:07.453Z,67.3
2017-12-27T13:28:09.857Z,67.2
2017-12-27T13:29:12.264Z,67.2
2017-12-27T13:30:15.024Z,67.2
2017-12-27T13:31:17.436Z,67.3
2017-12-27T13:32:19.979Z,67.2
2017-12-27T13:33:22.531Z,67.2
2017-12-27T13:34:24.944Z,67.1
2017-12-27T13:35:27.361Z,67.1
2017-12-27T13:36:29.770Z,66.9
2017-12-27T13:37:32.187Z,67.1
2017-12-27T13:38:34.606Z,67.3
2017-12-27T13:39:37.006Z,67.1
2017-12-27T13:40:39.713Z,67.1
2017-12-27T13:41:42.114Z,67.1
2017-12-27T13:42:44.825Z,67.2
2017-12-27T13:43:47.510Z,67.1
2017-12-27T13:44:49.939Z,67.2
2017-12-27T13:45:52.405Z,67.3
2017-12-27T13:46:54.825Z,67.3
2017-12-27T13:47:57.545Z,67.1
2017-12-27T13:48:59.959Z,67.2
2017-12-27T13:50:02.373Z,67.2
2017-12-27T13:51:04.781Z,67.2
2017-12-27T13:52:07.188Z,67.2
2017-12-27T13:53:09.891Z,67.2
2017-12-27T13:54:12.301Z,67.2
2017-12-27T13:55:14.712Z,67.1
2017-12-27T13:56:17.123Z,67.1